createdAt,value
2019-01-29T00:02:24.564Z,3.13
2019-01-29T00:04:52.199Z,2.90
2019-01-29T00:07:19.768Z,4.30
2019-01-29T00:09:47.743Z,3.10
2019-01-29T00:12:15.341Z,3.50
2019-01-29T00:14:42.905Z,3.67
2019-01-29T00:17:10.517Z,4.77
2019-01-29T00:19:38.088Z,4.07
2019-01-29T00:22:05.650Z,3.37
2019-01-29T00:24:33.246Z,3.50
2019-01-29T00:27:00.820Z,3.57
2019-01-29T00:29:28.417Z,3.53
2019-01-29T00:31:56.032Z,3.80
2019-01-29T00:34:23.569Z,3.10
2019-01-29T00:36:51.171Z,4.10
2019-01-29T00:39:20.075Z,3.23
2019-01-29T00:41:47.649Z,3.90
2019-01-29T00:44:15.216Z,3.60
2019-01-29T00:46:42.788Z,3.27
2019-01-29T00:49:10.379Z,3.50
2019-01-29T00:51:37.955Z,5.23
2019-01-29T00:54:05.568Z,4.93
2019-01-29T00:56:33.156Z,3.43
2019-01-29T00:59:00.730Z,3.40
2019-01-29T01:01:28.320Z,3.70
2019-01-29T01:03:56.660Z,3.90
2019-01-29T01:06:24.262Z,3.93
2019-01-29T01:08:52.596Z,3.27
2019-01-29T01:11:20.459Z,5.37
2019-01-29T01:13:48.055Z,4.67
2019-01-29T01:16:15.627Z,3.30
2019-01-29T01:18:44.024Z,3.07
2019-01-29T01:21:11.596Z,3.70
2019-01-29T01:23:39.169Z,5.20
2019-01-29T01:26:06.770Z,3.33
2019-01-29T01:28:34.335Z,3.80
2019-01-29T01:31:01.938Z,3.87
2019-01-29T01:33:29.512Z,3.23
2019-01-29T01:35:57.081Z,3.70
2019-01-29T01:38:24.675Z,3.80
2019-01-29T01:40:52.248Z,4.00
2019-01-29T01:43:19.889Z,4.33
2019-01-29T01:45:47.423Z,4.00
2019-01-29T01:48:14.986Z,3.80
2019-01-29T01:50:42.592Z,4.03
2019-01-29T01:53:10.164Z,3.83
2019-01-29T01:55:38.562Z,4.00
2019-01-29T01:58:06.131Z,4.23
2019-01-29T02:00:33.707Z,3.70
2019-01-29T02:03:01.311Z,4.30
2019-01-29T02:05:28.883Z,3.77
2019-01-29T02:07:56.497Z,5.60
2019-01-29T02:10:26.779Z,4.63
2019-01-29T02:12:55.114Z,4.23
2019-01-29T02:15:22.745Z,4.23
2019-01-29T02:17:50.856Z,4.13
2019-01-29T02:20:18.464Z,6.35
2019-01-29T02:22:46.800Z,4.50
2019-01-29T02:25:14.374Z,4.23
2019-01-29T02:27:41.965Z,6.20
2019-01-29T02:30:16.004Z,4.90
2019-01-29T02:32:43.618Z,5.47
2019-01-29T02:35:11.206Z,4.57
2019-01-29T02:37:39.555Z,5.60
2019-01-29T02:40:07.150Z,5.17
2019-01-29T02:42:34.738Z,7.00
2019-01-29T02:45:02.370Z,5.97
2019-01-29T02:47:30.707Z,5.53
2019-01-29T02:49:58.280Z,5.90
2019-01-29T02:52:25.866Z,5.60
2019-01-29T02:54:54.203Z,5.50
2019-01-29T02:57:21.810Z,6.10
2019-01-29T02:59:50.149Z,5.67
2019-01-29T03:02:17.725Z,5.70
2019-01-29T03:04:45.326Z,5.67
2019-01-29T03:07:12.893Z,5.43
2019-01-29T03:09:40.810Z,6.13
2019-01-29T03:12:08.380Z,5.63
2019-01-29T03:14:35.966Z,8.30
2019-01-29T03:17:03.558Z,7.63
2019-01-29T03:19:31.130Z,6.07
2019-01-29T03:21:58.767Z,5.97
2019-01-29T03:24:26.310Z,5.77
2019-01-29T03:26:54.660Z,6.87
2019-01-29T03:29:22.256Z,7.87
2019-01-29T03:31:50.607Z,6.90
2019-01-29T03:34:18.222Z,6.37
2019-01-29T03:36:45.798Z,6.60
2019-01-29T03:39:13.385Z,6.40
2019-01-29T03:41:40.986Z,6.27
2019-01-29T03:44:09.343Z,8.70
2019-01-29T03:46:36.980Z,7.07
2019-01-29T03:49:04.558Z,8.70
2019-01-29T03:51:32.129Z,6.90
2019-01-29T03:53:59.730Z,6.93
2019-01-29T03:56:27.297Z,6.43
2019-01-29T03:58:54.906Z,9.37
2019-01-29T04:01:22.476Z,7.37
2019-01-29T04:03:50.053Z,9.70
2019-01-29T04:06:18.421Z,9.47
2019-01-29T04:08:45.998Z,7.63
2019-01-29T04:11:14.371Z,7.07
2019-01-29T04:13:42.710Z,6.37
2019-01-29T04:16:10.284Z,7.17
2019-01-29T04:18:37.887Z,6.47
2019-01-29T04:21:05.471Z,6.87
2019-01-29T04:23:33.080Z,9.67
2019-01-29T04:26:00.668Z,7.40
2019-01-29T04:28:28.242Z,7.47
2019-01-29T04:30:55.842Z,6.63
2019-01-29T04:33:23.413Z,7.20
2019-01-29T04:35:51.027Z,7.17
2019-01-29T04:38:18.599Z,7.07
2019-01-29T04:40:46.175Z,7.27
2019-01-29T04:43:13.777Z,7.53
2019-01-29T04:45:41.353Z,6.33
2019-01-29T04:48:09.735Z,6.43
2019-01-29T04:50:38.078Z,6.17
2019-01-29T04:53:05.657Z,7.13
2019-01-29T04:55:33.255Z,6.37
2019-01-29T04:58:00.829Z,6.77
2019-01-29T05:00:28.481Z,8.47
2019-01-29T05:02:56.838Z,6.77
2019-01-29T05:05:25.197Z,7.27
2019-01-29T05:07:52.799Z,7.27
2019-01-29T05:10:21.132Z,7.67
2019-01-29T05:12:48.777Z,7.47
2019-01-29T05:15:16.320Z,10.07
2019-01-29T05:17:43.885Z,8.23
2019-01-29T05:20:14.005Z,8.80
2019-01-29T05:22:41.594Z,7.73
2019-01-29T05:25:09.201Z,8.37
2019-01-29T05:27:36.781Z,8.40
2019-01-29T05:30:04.347Z,9.27
2019-01-29T05:32:31.960Z,9.40
2019-01-29T05:34:59.531Z,9.50
2019-01-29T05:37:27.920Z,10.57
2019-01-29T05:39:56.256Z,9.70
2019-01-29T05:42:23.840Z,9.00
2019-01-29T05:44:51.439Z,12.00
2019-01-29T05:47:19.027Z,9.10
2019-01-29T05:49:46.662Z,8.47
2019-01-29T05:52:14.234Z,8.10
2019-01-29T05:54:41.817Z,8.43
2019-01-29T05:57:09.413Z,11.07
2019-01-29T05:59:37.044Z,11.53
2019-01-29T06:02:04.607Z,8.00
2019-01-29T06:04:32.178Z,7.87
2019-01-29T06:06:59.780Z,7.60
2019-01-29T06:09:28.190Z,8.07
2019-01-29T06:11:55.744Z,8.00
2019-01-29T06:14:23.651Z,11.07
2019-01-29T06:16:51.233Z,12.57
2019-01-29T06:19:18.817Z,16.77
2019-01-29T06:21:47.190Z,12.73
2019-01-29T06:24:14.771Z,10.67
2019-01-29T06:26:42.400Z,9.77
2019-01-29T06:29:09.969Z,10.10
2019-01-29T06:31:38.315Z,9.07
2019-01-29T06:34:05.918Z,9.40
2019-01-29T06:36:34.262Z,13.90
2019-01-29T06:39:02.275Z,11.93
2019-01-29T06:41:30.665Z,16.85
2019-01-29T06:43:58.249Z,13.60
2019-01-29T06:46:25.861Z,14.30
2019-01-29T06:48:53.911Z,11.60
2019-01-29T06:51:21.853Z,10.93
2019-01-29T06:53:49.443Z,11.60
2019-01-29T06:56:17.036Z,10.23
2019-01-29T06:58:45.402Z,14.37
2019-01-29T07:01:12.991Z,10.93
2019-01-29T07:03:41.720Z,10.63
2019-01-29T07:06:09.299Z,9.40
2019-01-29T07:08:36.883Z,10.10
2019-01-29T07:11:05.300Z,9.57
2019-01-29T07:13:32.868Z,10.43
2019-01-29T07:16:02.952Z,9.80
2019-01-29T07:18:39.801Z,8.63
2019-01-29T07:21:07.424Z,9.20
2019-01-29T07:23:34.999Z,8.70
2019-01-29T07:26:02.574Z,9.27
2019-01-29T07:28:30.239Z,9.40
2019-01-29T07:30:57.857Z,11.98
2019-01-29T07:33:25.403Z,9.73
2019-01-29T07:35:53.802Z,8.83
2019-01-29T07:38:21.379Z,9.20
2019-01-29T07:40:48.962Z,9.33
2019-01-29T07:43:16.939Z,10.13
2019-01-29T07:45:44.519Z,8.67
2019-01-29T07:48:12.095Z,8.87
2019-01-29T07:50:40.489Z,8.33
2019-01-29T07:53:08.833Z,8.90
2019-01-29T07:55:36.399Z,8.80
2019-01-29T07:58:04.024Z,9.50
2019-01-29T08:00:31.601Z,13.13
2019-01-29T08:02:59.185Z,13.90
2019-01-29T08:05:26.815Z,13.70
2019-01-29T08:07:54.405Z,13.10
2019-01-29T08:10:21.981Z,11.13
2019-01-29T08:12:50.391Z,10.67
2019-01-29T08:15:17.977Z,10.90
2019-01-29T08:17:45.555Z,10.07
2019-01-29T08:20:14.258Z,10.00
2019-01-29T08:22:41.850Z,9.03
2019-01-29T08:25:09.418Z,8.40
2019-01-29T08:27:37.060Z,7.87
2019-01-29T08:30:13.312Z,8.20
2019-01-29T08:32:40.927Z,8.03
2019-01-29T08:35:08.507Z,12.37
2019-01-29T08:37:36.079Z,10.33
2019-01-29T08:40:03.686Z,9.87
2019-01-29T08:42:31.262Z,9.80
2019-01-29T08:44:58.858Z,9.27
2019-01-29T08:47:26.893Z,9.77
2019-01-29T08:49:54.445Z,9.43
2019-01-29T08:52:22.021Z,12.27
2019-01-29T08:54:50.050Z,10.80
2019-01-29T08:57:17.632Z,9.17
2019-01-29T08:59:45.211Z,8.60
2019-01-29T09:02:12.828Z,9.87
2019-01-29T09:04:40.401Z,8.73
2019-01-29T09:07:07.971Z,7.03
2019-01-29T09:09:36.366Z,7.20
2019-01-29T09:12:04.719Z,8.00
2019-01-29T09:14:32.283Z,7.17
2019-01-29T09:16:59.955Z,7.43
2019-01-29T09:19:28.297Z,7.00
2019-01-29T09:21:55.860Z,7.87
2019-01-29T09:24:23.486Z,7.70
2019-01-29T09:26:51.059Z,8.90
2019-01-29T09:29:18.629Z,8.27
2019-01-29T09:31:46.760Z,7.37
2019-01-29T09:34:15.102Z,7.97
2019-01-29T09:36:42.669Z,7.77
2019-01-29T09:39:10.327Z,7.17
2019-01-29T09:41:37.920Z,6.67
2019-01-29T09:44:06.266Z,7.17
2019-01-29T09:46:34.250Z,7.10
2019-01-29T09:49:01.826Z,7.90
2019-01-29T09:51:29.415Z,7.70
2019-01-29T09:53:57.796Z,7.53
2019-01-29T09:56:25.469Z,7.40
2019-01-29T09:58:52.960Z,6.80
2019-01-29T10:01:20.605Z,6.93
2019-01-29T10:03:48.177Z,7.73
2019-01-29T10:06:15.766Z,6.87
2019-01-29T10:08:43.394Z,7.00
2019-01-29T10:11:10.971Z,6.77
2019-01-29T10:13:38.561Z,8.20
2019-01-29T10:16:06.955Z,7.10
2019-01-29T10:18:35.308Z,7.10
2019-01-29T10:21:02.869Z,6.50
2019-01-29T10:23:30.497Z,5.47
2019-01-29T10:25:58.087Z,7.00
2019-01-29T10:28:25.657Z,6.50
2019-01-29T10:30:54.111Z,6.17
2019-01-29T10:33:21.833Z,6.83
2019-01-29T10:35:50.179Z,6.60
2019-01-29T10:38:18.568Z,5.77
2019-01-29T10:40:46.153Z,5.80
2019-01-29T10:43:14.485Z,6.77
2019-01-29T10:45:42.600Z,6.23
2019-01-29T10:48:10.180Z,5.67
2019-01-29T10:50:37.756Z,5.43
2019-01-29T10:53:05.403Z,5.20
2019-01-29T10:55:33.074Z,5.50
2019-01-29T10:58:00.597Z,4.87
2019-01-29T11:00:34.221Z,4.80
2019-01-29T11:03:01.794Z,4.97
2019-01-29T11:05:29.365Z,4.83
2019-01-29T11:07:56.974Z,4.77
2019-01-29T11:10:24.581Z,5.47
2019-01-29T11:12:52.121Z,5.33
2019-01-29T11:15:25.208Z,5.33
2019-01-29T11:17:53.573Z,5.30
2019-01-29T11:20:21.190Z,5.30
2019-01-29T11:22:48.795Z,5.10
2019-01-29T11:25:16.325Z,3.93
2019-01-29T11:27:43.908Z,5.43
2019-01-29T11:30:11.653Z,4.27
2019-01-29T11:32:39.211Z,4.20
2019-01-29T11:35:06.801Z,3.90
2019-01-29T11:37:35.225Z,3.87
2019-01-29T11:40:02.811Z,4.27
2019-01-29T11:42:30.381Z,4.37
2019-01-29T11:44:57.997Z,4.03
2019-01-29T11:47:26.345Z,4.00
2019-01-29T11:49:53.917Z,3.03
2019-01-29T11:52:22.082Z,3.03
2019-01-29T11:54:50.492Z,3.85
2019-01-29T11:57:17.243Z,4.07
2019-01-29T11:59:45.637Z,4.33
2019-01-29T12:02:13.235Z,3.77
2019-01-29T12:04:40.816Z,4.03
2019-01-29T12:07:08.440Z,3.87
2019-01-29T12:09:36.015Z,3.73
2019-01-29T12:12:03.597Z,4.23
2019-01-29T12:14:31.221Z,3.33
2019-01-29T12:16:59.105Z,3.50
2019-01-29T12:19:26.686Z,3.83
2019-01-29T12:21:55.092Z,3.60
2019-01-29T12:24:22.664Z,4.05
2019-01-29T12:26:51.004Z,3.10
2019-01-29T12:29:18.681Z,3.10
2019-01-29T12:31:46.266Z,2.90
2019-01-29T12:34:13.836Z,3.53
2019-01-29T12:36:41.523Z,3.73
2019-01-29T12:39:09.099Z,3.90
2019-01-29T12:41:36.671Z,3.70
2019-01-29T12:44:04.531Z,3.67
2019-01-29T12:46:32.141Z,4.70
2019-01-29T12:48:59.718Z,4.47
2019-01-29T12:51:27.350Z,4.63
2019-01-29T12:53:54.917Z,4.47
2019-01-29T12:56:22.495Z,4.50
2019-01-29T12:58:50.859Z,4.10
2019-01-29T13:01:18.430Z,4.37
2019-01-29T13:03:46.823Z,3.60
2019-01-29T13:06:14.394Z,3.50
2019-01-29T13:08:41.963Z,5.10
2019-01-29T13:11:09.565Z,3.97
2019-01-29T13:13:37.137Z,4.43
2019-01-29T13:16:05.608Z,4.63
2019-01-29T13:18:33.179Z,4.80
2019-01-29T13:21:00.754Z,4.80
2019-01-29T13:23:28.386Z,4.47
2019-01-29T13:25:55.976Z,4.70
2019-01-29T13:28:24.130Z,4.20
2019-01-29T13:30:51.720Z,3.90
2019-01-29T13:33:20.109Z,3.83
2019-01-29T13:35:47.692Z,4.27
2019-01-29T13:38:15.266Z,4.00
2019-01-29T13:40:42.930Z,4.43
2019-01-29T13:43:10.504Z,4.37
2019-01-29T13:45:38.082Z,4.57
2019-01-29T13:48:05.696Z,4.50
2019-01-29T13:53:11.756Z,4.13
2019-01-29T13:55:39.324Z,3.97
2019-01-29T13:58:06.943Z,3.60
2019-01-29T14:00:34.502Z,4.03
2019-01-29T14:03:02.065Z,3.30
2019-01-29T14:05:29.687Z,3.60
2019-01-29T14:07:57.263Z,3.07
2019-01-29T14:10:24.830Z,3.27
2019-01-29T14:12:52.452Z,4.13
2019-01-29T14:15:22.962Z,3.60
2019-01-29T14:17:50.617Z,5.10
2019-01-29T14:20:18.189Z,4.37
2019-01-29T14:22:45.752Z,4.03
2019-01-29T14:25:14.402Z,3.03
2019-01-29T14:27:42.916Z,3.20
2019-01-29T14:30:19.364Z,4.73
2019-01-29T14:32:46.909Z,4.47
2019-01-29T14:35:14.485Z,3.73
2019-01-29T14:38:00.588Z,4.97
2019-01-29T14:40:28.183Z,4.47
2019-01-29T14:42:56.562Z,4.23
2019-01-29T14:45:24.250Z,4.30
2019-01-29T14:47:52.577Z,4.57
2019-01-29T14:50:20.162Z,5.13
2019-01-29T14:52:47.828Z,4.53
2019-01-29T14:55:15.418Z,4.10
2019-01-29T14:57:43.843Z,4.13
2019-01-29T15:00:20.058Z,4.40
2019-01-29T15:02:47.628Z,4.43
2019-01-29T15:05:15.263Z,4.30
2019-01-29T15:07:42.812Z,4.20
2019-01-29T15:10:10.381Z,4.07
2019-01-29T15:12:38.421Z,3.97
2019-01-29T15:15:05.996Z,4.13
2019-01-29T15:17:33.573Z,3.60
2019-01-29T15:20:02.440Z,3.50
2019-01-29T15:22:30.013Z,4.50
2019-01-29T15:24:57.585Z,5.67
2019-01-29T15:27:25.259Z,4.47
2019-01-29T15:29:52.846Z,2.87
2019-01-29T15:32:20.414Z,3.80
2019-01-29T15:34:48.078Z,3.30
2019-01-29T15:37:15.628Z,3.83
2019-01-29T15:39:43.229Z,3.77
2019-01-29T15:42:10.842Z,3.67
2019-01-29T15:44:38.413Z,4.87
2019-01-29T15:47:06.072Z,3.70
2019-01-29T15:49:33.673Z,3.40
2019-01-29T15:52:01.247Z,3.57
2019-01-29T15:54:28.821Z,3.60
2019-01-29T15:56:57.264Z,4.03
2019-01-29T15:59:24.836Z,3.93
2019-01-29T16:01:52.461Z,3.67
2019-01-29T16:04:20.045Z,3.70
2019-01-29T16:06:47.622Z,3.43
2019-01-29T16:09:15.501Z,3.37
2019-01-29T16:11:43.080Z,4.13
2019-01-29T16:14:10.669Z,3.53
2019-01-29T16:16:39.520Z,4.00
2019-01-29T16:19:07.109Z,3.67
2019-01-29T16:21:35.484Z,5.00
2019-01-29T16:24:03.864Z,4.07
2019-01-29T16:26:31.790Z,3.60
2019-01-29T16:28:59.401Z,3.90
2019-01-29T16:31:26.983Z,3.70
2019-01-29T16:33:54.554Z,3.63
2019-01-29T16:36:22.218Z,4.53
2019-01-29T16:38:49.793Z,4.47
2019-01-29T16:41:17.403Z,4.07
2019-01-29T16:43:45.056Z,4.53
2019-01-29T16:46:12.627Z,4.30
2019-01-29T16:48:40.973Z,4.33
2019-01-29T16:51:08.853Z,4.20
2019-01-29T16:53:36.429Z,4.53
2019-01-29T16:56:04.001Z,4.80
2019-01-29T16:58:31.685Z,4.63
2019-01-29T17:00:59.263Z,4.40
2019-01-29T17:03:26.839Z,4.43
2019-01-29T17:05:54.433Z,4.60
2019-01-29T17:08:22.005Z,4.60
2019-01-29T17:10:49.651Z,4.37
2019-01-29T17:13:17.239Z,4.30
2019-01-29T17:15:44.794Z,4.77
2019-01-29T17:18:14.146Z,4.77
2019-01-29T17:20:44.519Z,5.07
2019-01-29T17:23:12.090Z,7.23
2019-01-29T17:25:39.689Z,8.30
2019-01-29T17:28:07.268Z,4.77
2019-01-29T17:30:35.861Z,6.10
2019-01-29T17:33:03.437Z,5.87
2019-01-29T17:35:31.004Z,8.47
2019-01-29T17:37:58.618Z,7.60
2019-01-29T17:40:26.195Z,8.67
2019-01-29T17:42:54.253Z,8.17
2019-01-29T17:45:39.836Z,7.17
2019-01-29T17:48:07.451Z,7.90
2019-01-29T17:50:35.050Z,6.57
2019-01-29T17:53:02.632Z,5.70
2019-01-29T17:55:30.256Z,7.50
2019-01-29T17:57:57.835Z,8.43
2019-01-29T18:00:25.511Z,7.27
2019-01-29T18:02:53.080Z,6.40
2019-01-29T18:05:20.656Z,6.67
2019-01-29T18:07:48.254Z,6.80
2019-01-29T18:10:15.850Z,8.43
2019-01-29T18:12:43.493Z,7.50
2019-01-29T18:15:13.758Z,6.40
2019-01-29T18:17:41.340Z,7.73
2019-01-29T18:20:08.938Z,5.30
2019-01-29T18:22:36.508Z,5.00
2019-01-29T18:25:04.166Z,5.93
2019-01-29T18:27:31.723Z,5.27
2019-01-29T18:29:59.303Z,7.17
2019-01-29T18:32:27.052Z,5.70
2019-01-29T18:34:54.507Z,5.87
2019-01-29T18:37:23.371Z,5.93
2019-01-29T18:39:50.953Z,5.33
2019-01-29T18:42:19.298Z,26.13
2019-01-29T18:44:47.206Z,6.10
2019-01-29T18:47:14.790Z,7.80
2019-01-29T18:49:42.670Z,19.27
2019-01-29T18:52:10.296Z,17.77
2019-01-29T18:54:40.566Z,12.23
2019-01-29T18:57:08.168Z,13.37
2019-01-29T18:59:35.746Z,7.17
2019-01-29T19:02:03.420Z,9.13
2019-01-29T19:04:31.005Z,13.33
2019-01-29T19:06:58.580Z,12.23
2019-01-29T19:09:26.208Z,6.90
2019-01-29T19:11:53.894Z,6.10
2019-01-29T19:14:21.434Z,6.97
2019-01-29T19:16:49.020Z,6.93
2019-01-29T19:19:16.614Z,7.47
2019-01-29T19:21:44.209Z,6.70
2019-01-29T19:24:11.787Z,9.00
2019-01-29T19:26:39.417Z,8.17
2019-01-29T19:29:07.003Z,6.80
2019-01-29T19:31:34.622Z,6.40
2019-01-29T19:34:02.226Z,7.23
2019-01-29T19:36:29.839Z,7.10
2019-01-29T19:38:57.429Z,6.80
2019-01-29T19:41:25.016Z,6.93
2019-01-29T19:43:52.607Z,6.73
2019-01-29T19:46:20.204Z,9.73
2019-01-29T19:48:47.802Z,10.27
2019-01-29T19:51:15.427Z,11.87
2019-01-29T19:53:43.010Z,5.20
2019-01-29T19:56:10.594Z,7.03
2019-01-29T19:58:38.188Z,6.57
2019-01-29T20:01:05.762Z,25.27
2019-01-29T20:03:33.644Z,23.77
2019-01-29T20:06:01.218Z,15.47
2019-01-29T20:08:28.816Z,11.67
2019-01-29T20:10:56.445Z,14.07
2019-01-29T20:13:24.030Z,7.50
2019-01-29T20:15:52.971Z,12.60
2019-01-29T20:18:20.650Z,8.90
2019-01-29T20:20:48.224Z,7.80
2019-01-29T20:23:15.832Z,20.20
2019-01-29T20:25:43.410Z,7.50
2019-01-29T20:28:11.038Z,7.67
2019-01-29T20:30:38.613Z,5.90
2019-01-29T20:33:06.229Z,6.20
2019-01-29T20:35:33.824Z,6.13
2019-01-29T20:38:01.693Z,5.30
2019-01-29T20:40:29.371Z,5.63
2019-01-29T20:42:56.933Z,6.00
2019-01-29T20:45:24.515Z,5.87
2019-01-29T20:47:52.705Z,5.60
2019-01-29T20:50:22.646Z,5.53
2019-01-29T20:52:51.046Z,6.47
2019-01-29T20:55:18.877Z,6.60
2019-01-29T20:57:46.448Z,6.07
2019-01-29T21:00:33.229Z,6.90
2019-01-29T21:03:00.810Z,6.30
2019-01-29T21:05:29.068Z,6.40
2019-01-29T21:07:56.640Z,6.87
2019-01-29T21:10:24.343Z,6.27
2019-01-29T21:12:51.942Z,9.13
2019-01-29T21:15:25.490Z,6.83
2019-01-29T21:17:53.906Z,7.13
2019-01-29T21:20:22.212Z,6.50
2019-01-29T21:22:49.805Z,7.13
2019-01-29T21:25:17.394Z,8.50
2019-01-29T21:27:44.971Z,7.63
2019-01-29T21:30:20.844Z,6.40
2019-01-29T21:32:48.376Z,6.73
2019-01-29T21:35:15.943Z,6.90
2019-01-29T21:37:43.544Z,7.17
2019-01-29T21:40:11.128Z,5.93
2019-01-29T21:42:39.521Z,8.17
2019-01-29T21:45:10.526Z,8.90
2019-01-29T21:47:38.102Z,7.17
2019-01-29T21:50:14.246Z,5.80
2019-01-29T21:52:41.838Z,8.00
2019-01-29T21:55:10.228Z,6.57
2019-01-29T21:57:38.569Z,9.23
2019-01-29T22:00:11.827Z,6.53
2019-01-29T22:02:39.426Z,6.73
2019-01-29T22:05:09.745Z,6.10
2019-01-29T22:07:37.412Z,9.43
2019-01-29T22:10:04.988Z,6.77
2019-01-29T22:12:32.557Z,7.63
2019-01-29T22:15:00.315Z,6.57
2019-01-29T22:17:27.739Z,5.60
2019-01-29T22:19:55.367Z,4.90
2019-01-29T22:22:23.707Z,6.57
2019-01-29T22:24:51.272Z,5.53
2019-01-29T22:27:18.878Z,5.97
2019-01-29T22:29:47.210Z,5.20
2019-01-29T22:32:15.178Z,4.63
2019-01-29T22:34:42.750Z,5.70
2019-01-29T22:37:10.320Z,4.83
2019-01-29T22:39:37.915Z,4.13
2019-01-29T22:42:05.491Z,3.87
2019-01-29T22:44:33.096Z,3.90
2019-01-29T22:47:00.685Z,4.97
2019-01-29T22:49:29.120Z,3.53
2019-01-29T22:51:56.716Z,3.90
2019-01-29T22:54:25.058Z,3.60
2019-01-29T22:56:52.668Z,3.90
2019-01-29T22:59:21.011Z,3.97
2019-01-29T23:01:48.584Z,3.53
2019-01-29T23:04:16.179Z,3.73
2019-01-29T23:06:43.755Z,4.43
2019-01-29T23:09:11.426Z,3.60
2019-01-29T23:11:38.905Z,3.50
2019-01-29T23:14:06.509Z,3.87
2019-01-29T23:16:35.659Z,3.73
2019-01-29T23:19:03.224Z,3.17
2019-01-29T23:21:30.862Z,2.93
2019-01-29T23:23:58.752Z,3.07
2019-01-29T23:26:26.386Z,2.97
2019-01-29T23:28:53.955Z,3.17
2019-01-29T23:31:21.517Z,3.17
2019-01-29T23:33:49.177Z,3.03
2019-01-29T23:36:16.678Z,3.47
2019-01-29T23:38:44.276Z,3.20
2019-01-29T23:41:12.608Z,3.13
2019-01-29T23:43:40.181Z,3.17
2019-01-29T23:46:09.055Z,3.20
2019-01-29T23:48:36.618Z,4.20
2019-01-29T23:51:04.222Z,2.67
2019-01-29T23:53:31.779Z,2.93
2019-01-29T23:56:00.118Z,2.77
2019-01-29T23:58:27.710Z,2.37
